Terminal Aerodrome Forecast
Issued by NWS

Home | Current Version | Previous Version | Text Only | Print | Product List | Glossary On
Versions: 1 2 3 4 5 6 7 8 9 10 11 12 13 14 15 16 17 18 19 20 21 22 23 24 25 26 27 28 29 30 31 32
000
FTUS45 KTFX 171143
TAFEKS
TAF
KEKS 171143Z 1712/1812 VRB03KT P6SM BKN150
     FM171500 VRB04KT P6SM FEW050 FEW110
      TEMPO 1718/1721 4SM -SHRA BKN050
     FM172100 36008KT 4SM -SHRA FEW050 SCT090
      TEMPO 1721/1724 VRB30G40KT 4SM -TSRA BKN050CB
     FM180000 36009KT P6SM SCT060 BKN100 PROB30 1800/1806 4SM -SHRA
      BKN060=

USA.gov is the U.S. government's official web portal to all federal, state and local government web resources and services.